createdAt,value
2022-12-01T00:01:45.457Z,69.29
2022-12-01T00:04:12.421Z,69.72
2022-12-01T00:06:39.239Z,70.36
2022-12-01T00:09:06.136Z,69.52
2022-12-01T00:11:33.023Z,70.40
2022-12-01T00:14:07.133Z,70.34
2022-12-01T00:16:34.842Z,70.21
2022-12-01T00:19:02.166Z,70.23
2022-12-01T00:21:29.012Z,69.90
2022-12-01T00:24:03.075Z,69.44
2022-12-01T00:26:30.779Z,70.47
2022-12-01T00:28:57.366Z,69.78
2022-12-01T00:31:25.838Z,69.57
2022-12-01T00:36:34.720Z,69.23
2022-12-01T00:39:04.871Z,69.41
2022-12-01T00:41:32.449Z,69.44
2022-12-01T00:43:59.365Z,69.16
2022-12-01T00:46:26.225Z,69.41
2022-12-01T00:48:53.204Z,68.82
2022-12-01T00:51:23.268Z,69.28
2022-12-01T00:53:54.422Z,69.71
2022-12-01T00:56:32.474Z,69.05
2022-12-01T00:59:14.003Z,69.08
2022-12-01T01:01:40.972Z,68.72
2022-12-01T01:04:07.732Z,68.74
2022-12-01T01:06:35.196Z,68.53
2022-12-01T01:09:01.993Z,68.94
2022-12-01T01:11:28.880Z,68.63
2022-12-01T01:13:56.002Z,68.74
2022-12-01T01:16:22.683Z,69.30
2022-12-01T01:22:00.761Z,69.75
2022-12-01T01:24:28.010Z,70.83
2022-12-01T01:26:54.693Z,70.96
2022-12-01T01:29:21.496Z,70.59
2022-12-01T01:31:48.997Z,70.80
2022-12-01T01:34:15.724Z,71.10
2022-12-01T01:36:42.772Z,71.06
2022-12-01T01:39:09.784Z,70.98
2022-12-01T01:41:36.875Z,70.91
2022-12-01T01:44:03.525Z,71.25
2022-12-01T01:46:33.183Z,71.31
2022-12-01T01:49:00.747Z,70.76
2022-12-01T01:51:28.201Z,71.01
2022-12-01T01:53:57.503Z,71.44
2022-12-01T01:56:24.472Z,70.91
2022-12-01T01:58:51.847Z,70.96
2022-12-01T02:01:25.763Z,71.25
2022-12-01T02:03:53.287Z,70.89
2022-12-01T02:06:20.020Z,71.34
2022-12-01T02:08:47.719Z,71.47
2022-12-01T02:11:18.236Z,71.32
2022-12-01T02:13:44.863Z,70.76
2022-12-01T02:16:15.824Z,71.04
2022-12-01T02:18:49.955Z,70.71
2022-12-01T02:21:16.897Z,70.23
2022-12-01T02:23:44.587Z,70.45
2022-12-01T02:26:11.512Z,70.47
2022-12-01T02:28:40.549Z,70.10
2022-12-01T02:31:15.225Z,70.78
2022-12-01T02:33:43.130Z,70.01
2022-12-01T02:36:10.084Z,70.21
2022-12-01T02:38:37.064Z,70.33
2022-12-01T02:41:03.941Z,70.69
2022-12-01T02:43:30.961Z,69.79
2022-12-01T02:45:59.166Z,70.56
2022-12-01T02:48:28.248Z,70.68
2022-12-01T02:50:55.954Z,70.77
2022-12-01T02:53:22.568Z,70.81
2022-12-01T02:55:50.319Z,70.95
2022-12-01T02:58:17.625Z,70.12
2022-12-01T03:00:45.035Z,69.75
2022-12-01T03:03:12.478Z,69.30
2022-12-01T03:05:39.538Z,69.09
2022-12-01T03:08:06.286Z,69.30
2022-12-01T03:10:33.106Z,68.23
2022-12-01T03:12:59.780Z,67.68
2022-12-01T03:15:29.456Z,68.82
2022-12-01T03:17:56.298Z,67.81
2022-12-01T03:20:23.419Z,68.05
2022-12-01T03:22:50.373Z,67.47
2022-12-01T03:25:19.153Z,67.37
2022-12-01T03:28:06.660Z,66.52
2022-12-01T03:33:13.072Z,67.42
2022-12-01T03:35:40.638Z,67.55
2022-12-01T03:38:07.550Z,67.61
2022-12-01T03:40:41.621Z,66.68
2022-12-01T03:43:13.314Z,66.39
2022-12-01T03:45:47.328Z,66.38
2022-12-01T03:48:14.388Z,66.50
2022-12-01T03:50:42.143Z,66.68
2022-12-01T03:53:11.341Z,67.22
2022-12-01T03:55:40.490Z,66.92
2022-12-01T03:58:07.825Z,67.36
2022-12-01T04:00:35.158Z,67.04
2022-12-01T04:03:02.547Z,66.62
2022-12-01T04:05:30.111Z,66.18
2022-12-01T04:08:04.502Z,66.76
2022-12-01T04:10:31.940Z,66.56
2022-12-01T04:13:18.814Z,66.39
2022-12-01T04:18:39.264Z,65.91
2022-12-01T04:21:10.085Z,66.11
2022-12-01T04:23:37.061Z,65.47
2022-12-01T04:26:05.739Z,65.89
2022-12-01T04:28:34.608Z,65.45
2022-12-01T04:31:01.634Z,64.85
2022-12-01T04:33:29.310Z,65.12
2022-12-01T04:35:56.926Z,64.42
2022-12-01T04:38:28.839Z,64.28
2022-12-01T04:40:59.091Z,64.30
2022-12-01T04:43:25.853Z,63.92
2022-12-01T04:45:53.191Z,64.02
2022-12-01T04:48:19.817Z,63.83
2022-12-01T04:50:46.358Z,63.21
2022-12-01T04:53:13.918Z,63.23
2022-12-01T04:55:41.923Z,63.27
2022-12-01T04:58:15.992Z,63.34
2022-12-01T05:00:44.933Z,63.20
2022-12-01T05:03:14.994Z,63.00
2022-12-01T05:05:49.165Z,62.63
2022-12-01T05:08:16.786Z,61.94
2022-12-01T05:10:44.246Z,61.90
2022-12-01T05:13:11.217Z,61.78
2022-12-01T05:15:39.633Z,62.04
2022-12-01T05:18:07.416Z,62.16
2022-12-01T05:20:35.873Z,62.05
2022-12-01T05:23:06.104Z,62.37
2022-12-01T05:25:33.349Z,61.37
2022-12-01T05:28:01.010Z,61.42
2022-12-01T05:30:34.120Z,61.86
2022-12-01T05:33:01.121Z,62.52
2022-12-01T05:35:28.909Z,61.50
2022-12-01T05:37:58.545Z,61.35
2022-12-01T05:40:26.468Z,61.28
2022-12-01T05:42:54.205Z,60.98
2022-12-01T05:45:23.353Z,60.68
2022-12-01T05:47:50.684Z,60.78
2022-12-01T05:50:21.339Z,60.68
2022-12-01T05:52:50.371Z,61.10
2022-12-01T05:55:16.941Z,60.20
2022-12-01T05:57:45.089Z,60.04
2022-12-01T06:00:15.809Z,60.33
2022-12-01T06:02:42.411Z,68.89
2022-12-01T06:11:16.660Z,59.36
2022-12-01T06:13:43.489Z,59.43
2022-12-01T06:16:13.780Z,59.03
2022-12-01T06:18:41.059Z,58.81
2022-12-01T06:21:14.864Z,58.62
2022-12-01T06:23:42.036Z,58.51
2022-12-01T06:29:25.587Z,59.29
2022-12-01T06:32:03.007Z,59.72
2022-12-01T06:34:30.112Z,59.57
2022-12-01T06:37:01.340Z,59.99
2022-12-01T06:39:32.706Z,59.62
2022-12-01T06:42:03.963Z,59.84
2022-12-01T06:44:30.950Z,59.72
2022-12-01T06:47:00.031Z,60.30
2022-12-01T06:49:27.235Z,60.21
2022-12-01T06:51:55.730Z,60.45
2022-12-01T06:54:22.709Z,60.32
2022-12-01T06:56:56.617Z,60.42
2022-12-01T06:59:26.135Z,59.86
2022-12-01T07:01:59.054Z,59.99
2022-12-01T07:04:29.145Z,59.86
2022-12-01T07:07:06.869Z,59.80
2022-12-01T07:09:36.339Z,59.91
2022-12-01T07:12:06.440Z,60.08
2022-12-01T07:14:35.593Z,60.14
2022-12-01T07:17:09.135Z,59.84
2022-12-01T07:19:38.843Z,59.77
2022-12-01T07:22:13.655Z,59.29
2022-12-01T07:24:45.312Z,59.28
2022-12-01T07:27:19.022Z,59.68
2022-12-01T07:36:12.239Z,59.97
2022-12-01T07:38:40.748Z,59.57
2022-12-01T07:41:19.497Z,60.53
2022-12-01T07:43:47.765Z,59.71
2022-12-01T07:46:22.303Z,59.88
2022-12-01T07:48:50.811Z,59.91
2022-12-01T07:51:18.823Z,59.75
2022-12-01T07:53:46.675Z,59.39
2022-12-01T07:56:14.504Z,58.69
2022-12-01T07:58:43.610Z,59.46
2022-12-01T08:01:12.566Z,59.97
2022-12-01T08:03:42.360Z,59.87
2022-12-01T08:06:12.341Z,58.80
2022-12-01T08:08:38.959Z,58.59
2022-12-01T08:11:05.762Z,59.25
2022-12-01T08:13:32.914Z,59.38
2022-12-01T08:16:04.240Z,59.91
2022-12-01T08:18:32.930Z,58.50
2022-12-01T08:21:11.350Z,58.44
2022-12-01T08:23:38.389Z,58.64
2022-12-01T08:26:05.290Z,58.19
2022-12-01T08:28:32.322Z,58.16
2022-12-01T08:30:59.388Z,58.41
2022-12-01T08:33:26.731Z,58.26
2022-12-01T08:35:53.674Z,57.62
2022-12-01T08:38:23.136Z,57.12
2022-12-01T08:40:52.509Z,56.86
2022-12-01T08:48:52.786Z,56.88
2022-12-01T08:51:23.008Z,55.33
2022-12-01T08:59:18.768Z,56.06
2022-12-01T09:01:56.195Z,55.32
2022-12-01T09:12:34.812Z,55.76
2022-12-01T09:15:09.032Z,56.12
2022-12-01T09:17:37.540Z,55.97
2022-12-01T09:20:06.945Z,56.54
2022-12-01T09:22:38.340Z,55.78
2022-12-01T09:36:27.569Z,56.24
2022-12-01T09:38:58.874Z,56.44
2022-12-01T09:41:26.114Z,56.50
2022-12-01T09:43:53.988Z,56.57
2022-12-01T09:49:12.245Z,56.27
2022-12-01T09:51:45.921Z,55.65
2022-12-01T09:54:15.874Z,56.07
2022-12-01T09:56:44.442Z,56.22
2022-12-01T09:59:13.046Z,55.51
2022-12-01T10:01:42.400Z,56.56
2022-12-01T10:09:50.313Z,56.12
2022-12-01T10:12:25.087Z,56.03
2022-12-01T10:15:01.085Z,55.03
2022-12-01T10:17:30.345Z,55.26
2022-12-01T10:19:57.701Z,55.12
2022-12-01T10:22:36.099Z,55.74
2022-12-01T10:25:03.963Z,55.83
2022-12-01T10:27:32.507Z,55.28
2022-12-01T10:30:00.184Z,55.09
2022-12-01T10:32:29.176Z,55.13
2022-12-01T10:35:01.893Z,54.69
2022-12-01T10:37:33.235Z,54.40
2022-12-01T10:40:00.410Z,55.54
2022-12-01T10:42:34.039Z,54.46
2022-12-01T10:45:09.098Z,55.65
2022-12-01T10:47:43.403Z,54.32
2022-12-01T10:50:12.770Z,54.49
2022-12-01T10:52:39.957Z,55.06
2022-12-01T10:56:42.406Z,55.20
2022-12-01T10:57:56.835Z,55.67
2022-12-01T11:00:51.395Z,56.56
2022-12-01T11:03:15.788Z,56.07
2022-12-01T11:05:51.600Z,56.37
2022-12-01T11:08:24.390Z,56.89
2022-12-01T11:10:56.001Z,57.38
2022-12-01T11:13:23.105Z,56.68
2022-12-01T11:18:32.565Z,57.48
2022-12-01T11:20:59.756Z,57.36
2022-12-01T11:23:30.662Z,57.45
2022-12-01T11:25:59.842Z,58.07
2022-12-01T11:28:27.881Z,57.16
2022-12-01T11:30:59.417Z,57.38
2022-12-01T11:33:28.623Z,57.48
2022-12-01T11:36:00.018Z,57.37
2022-12-01T11:44:01.449Z,55.41
2022-12-01T11:46:29.879Z,53.58
2022-12-01T11:48:58.113Z,53.57
2022-12-01T11:51:29.188Z,54.50
2022-12-01T11:54:01.545Z,55.13
2022-12-01T11:56:33.183Z,56.07
2022-12-01T12:02:08.325Z,56.31
2022-12-01T12:04:35.236Z,56.17
2022-12-01T12:07:02.999Z,55.75
2022-12-01T12:09:30.741Z,54.99
2022-12-01T12:12:01.565Z,54.96
2022-12-01T12:14:32.336Z,55.71
2022-12-01T12:17:00.990Z,55.89
2022-12-01T12:19:34.229Z,55.44
2022-12-01T12:22:17.536Z,55.62
2022-12-01T12:24:44.681Z,55.44
2022-12-01T12:27:13.462Z,53.29
2022-12-01T12:29:40.432Z,54.98
2022-12-01T12:32:09.276Z,55.66
2022-12-01T12:34:36.320Z,55.26
2022-12-01T12:37:04.101Z,55.56
2022-12-01T12:39:32.726Z,55.07
2022-12-01T12:42:01.929Z,54.77
2022-12-01T12:44:42.633Z,56.51
2022-12-01T12:47:12.246Z,56.73
2022-12-01T12:49:44.544Z,56.68
2022-12-01T12:52:25.387Z,56.66
2022-12-01T12:55:12.963Z,56.00
2022-12-01T13:00:41.411Z,55.68
2022-12-01T13:16:05.303Z,54.28
2022-12-01T13:19:01.114Z,53.98
2022-12-01T13:21:35.107Z,55.10
2022-12-01T13:24:04.250Z,54.48
2022-12-01T13:26:39.291Z,53.90
2022-12-01T13:29:13.467Z,51.96
2022-12-01T13:31:43.078Z,50.54
2022-12-01T13:36:59.054Z,50.80
2022-12-01T13:39:28.465Z,52.08
2022-12-01T13:44:45.632Z,53.17
2022-12-01T13:50:10.865Z,52.87
2022-12-01T13:52:48.542Z,50.80
2022-12-01T13:57:57.122Z,52.32
2022-12-01T14:00:24.384Z,52.46
2022-12-01T14:02:55.992Z,53.43
2022-12-01T14:05:26.041Z,53.82
2022-12-01T14:07:55.641Z,54.53
2022-12-01T14:10:25.790Z,55.07
2022-12-01T14:12:55.333Z,55.00
2022-12-01T14:15:22.761Z,54.82
2022-12-01T14:20:44.356Z,55.55
2022-12-01T14:23:21.034Z,55.52
2022-12-01T14:25:55.919Z,55.97
2022-12-01T14:28:24.174Z,55.58
2022-12-01T14:30:51.797Z,54.15
2022-12-01T14:33:26.106Z,54.89
2022-12-01T14:36:05.436Z,55.09
2022-12-01T14:38:43.231Z,55.89
2022-12-01T14:44:14.056Z,55.28
2022-12-01T14:46:43.491Z,55.18
2022-12-01T14:49:21.601Z,56.25
2022-12-01T14:51:51.743Z,57.35
2022-12-01T14:54:19.064Z,56.71
2022-12-01T14:56:47.037Z,56.98
2022-12-01T14:59:14.427Z,56.67
2022-12-01T15:01:41.626Z,55.82
2022-12-01T15:04:12.941Z,55.54
2022-12-01T15:06:40.811Z,56.40
2022-12-01T15:11:56.698Z,57.96
2022-12-01T15:14:29.362Z,57.14
2022-12-01T15:17:07.296Z,58.36
2022-12-01T15:19:38.520Z,58.05
2022-12-01T15:22:09.594Z,57.29
2022-12-01T15:24:39.303Z,56.78
2022-12-01T15:27:10.274Z,57.54
2022-12-01T15:29:45.700Z,56.56
2022-12-01T15:32:14.984Z,57.59
2022-12-01T15:37:27.407Z,58.19
2022-12-01T15:41:06.101Z,57.02
2022-12-01T15:43:05.794Z,56.53
2022-12-01T15:45:39.526Z,56.47
2022-12-01T15:50:50.921Z,55.61
2022-12-01T15:53:34.820Z,55.89
2022-12-01T15:56:22.369Z,56.98
2022-12-01T16:01:42.854Z,58.68
2022-12-01T16:04:15.908Z,58.11
2022-12-01T16:13:06.335Z,58.64
2022-12-01T16:15:34.178Z,58.88
2022-12-01T16:18:08.764Z,59.28
2022-12-01T16:37:58.917Z,58.55
2022-12-01T16:40:27.772Z,58.43
2022-12-01T16:43:08.775Z,59.08
2022-12-01T16:45:44.851Z,58.70
2022-12-01T16:51:35.526Z,58.57
2022-12-01T16:57:08.354Z,59.89
2022-12-01T16:59:56.540Z,59.91
2022-12-01T17:11:17.212Z,60.86
2022-12-01T17:22:49.763Z,60.71
2022-12-01T17:25:17.362Z,59.92
2022-12-01T17:27:46.627Z,60.41
2022-12-01T17:30:17.331Z,61.00
2022-12-01T17:32:44.444Z,61.01
2022-12-01T17:35:14.148Z,60.42
2022-12-01T17:47:04.459Z,60.20
2022-12-01T17:49:32.784Z,59.17
2022-12-01T17:52:08.212Z,60.13
2022-12-01T17:54:37.905Z,59.30
2022-12-01T17:57:06.017Z,58.19
2022-12-01T17:59:33.052Z,55.61
2022-12-01T18:02:01.385Z,54.43
2022-12-01T18:04:30.976Z,54.82
2022-12-01T18:09:56.144Z,49.72
2022-12-01T18:12:24.264Z,49.10
2022-12-01T18:14:54.102Z,48.77
2022-12-01T18:17:23.114Z,50.99
2022-12-01T18:19:51.075Z,51.30
2022-12-01T18:22:18.648Z,53.29
2022-12-01T18:28:01.414Z,52.02
2022-12-01T18:30:29.249Z,51.08
2022-12-01T18:32:56.195Z,50.21
2022-12-01T18:35:27.430Z,48.55
2022-12-01T18:37:57.908Z,47.24
2022-12-01T18:40:31.051Z,47.33
2022-12-01T18:43:09.716Z,46.75
2022-12-01T18:45:44.958Z,45.91
2022-12-01T18:48:16.933Z,45.66
2022-12-01T18:54:02.339Z,46.75
2022-12-01T18:56:29.727Z,49.02
2022-12-01T18:58:58.840Z,48.76
2022-12-01T19:01:26.059Z,49.57
2022-12-01T19:03:56.609Z,48.01
2022-12-01T19:06:23.705Z,46.92
2022-12-01T19:08:53.542Z,46.93
2022-12-01T19:11:20.666Z,46.21
2022-12-01T19:13:49.663Z,45.79
2022-12-01T19:16:18.351Z,46.30
2022-12-01T19:18:47.743Z,45.46
2022-12-01T19:21:15.563Z,46.85
2022-12-01T19:23:44.159Z,46.49
2022-12-01T19:26:11.148Z,51.40
2022-12-01T19:28:42.377Z,49.32
2022-12-01T19:31:09.303Z,47.98
2022-12-01T19:33:37.630Z,47.07
2022-12-01T19:36:07.143Z,46.20
2022-12-01T19:38:34.040Z,47.55
2022-12-01T19:41:00.747Z,49.10
2022-12-01T19:43:28.166Z,50.01
2022-12-01T19:45:57.172Z,49.04
2022-12-01T19:48:26.783Z,47.77
2022-12-01T19:51:01.875Z,48.05
2022-12-01T19:53:34.481Z,50.92
2022-12-01T20:19:14.530Z,49.07
2022-12-01T20:21:43.162Z,48.73
2022-12-01T20:24:13.798Z,47.71
2022-12-01T20:26:40.737Z,46.85
2022-12-01T20:29:16.691Z,49.04
2022-12-01T20:31:46.736Z,50.10
2022-12-01T20:34:19.739Z,48.88
2022-12-01T20:37:04.152Z,48.36
2022-12-01T20:39:35.250Z,48.51
2022-12-01T20:42:02.191Z,52.67
2022-12-01T20:44:29.317Z,52.00
2022-12-01T20:46:56.877Z,52.04
2022-12-01T20:49:23.544Z,50.68
2022-12-01T20:51:50.514Z,50.37
2022-12-01T20:54:28.374Z,49.12
2022-12-01T20:56:56.376Z,49.56
2022-12-01T20:59:23.258Z,49.39
2022-12-01T21:01:50.086Z,52.71
2022-12-01T21:04:17.892Z,49.82
2022-12-01T21:06:45.529Z,49.36
2022-12-01T21:09:12.476Z,48.08
2022-12-01T21:11:39.213Z,48.20
2022-12-01T21:14:09.027Z,48.12
2022-12-01T21:19:34.603Z,49.05
2022-12-01T21:22:06.740Z,52.39
2022-12-01T21:24:46.179Z,51.45
2022-12-01T21:27:15.774Z,52.08
2022-12-01T21:29:47.512Z,53.47
2022-12-01T21:32:18.136Z,54.63
2022-12-01T21:34:48.195Z,53.06
2022-12-01T21:37:17.924Z,51.47
2022-12-01T21:39:44.890Z,50.39
2022-12-01T21:42:14.156Z,51.76
2022-12-01T21:44:41.317Z,49.73
2022-12-01T21:47:08.504Z,51.92
2022-12-01T21:49:35.506Z,50.19
2022-12-01T21:52:04.817Z,53.14
2022-12-01T21:54:32.061Z,51.92
2022-12-01T21:56:59.047Z,51.84
2022-12-01T21:59:29.735Z,51.69
2022-12-01T22:01:58.484Z,51.63
2022-12-01T22:04:32.989Z,50.63
2022-12-01T22:07:05.246Z,50.39
2022-12-01T22:09:40.575Z,53.20
2022-12-01T22:12:08.679Z,51.81
2022-12-01T22:14:38.980Z,50.53
2022-12-01T22:17:05.640Z,49.35
2022-12-01T22:19:33.058Z,48.06
2022-12-01T22:22:00.085Z,48.17
2022-12-01T22:24:30.362Z,47.50
2022-12-01T22:27:02.167Z,47.40
2022-12-01T22:32:12.507Z,48.33
2022-12-01T22:34:42.004Z,47.40
2022-12-01T22:37:08.909Z,49.70
2022-12-01T22:39:36.255Z,49.02
2022-12-01T22:42:05.294Z,49.37
2022-12-01T22:44:36.096Z,49.04
2022-12-01T22:47:05.140Z,47.34
2022-12-01T22:49:36.839Z,47.74
2022-12-01T22:52:32.089Z,48.97
2022-12-01T22:57:42.966Z,46.25
2022-12-01T23:00:09.688Z,46.51
2022-12-01T23:02:38.292Z,45.26
2022-12-01T23:05:05.052Z,45.24
2022-12-01T23:07:39.662Z,45.30
2022-12-01T23:10:06.748Z,44.48
2022-12-01T23:12:36.039Z,45.90
2022-12-01T23:15:03.081Z,45.17
2022-12-01T23:17:29.984Z,44.56
2022-12-01T23:19:56.824Z,43.72
2022-12-01T23:22:25.349Z,44.01
2022-12-01T23:24:52.637Z,44.57
2022-12-01T23:27:19.848Z,44.73
2022-12-01T23:29:47.478Z,44.93
2022-12-01T23:32:14.500Z,44.80
2022-12-01T23:34:41.501Z,43.94
2022-12-01T23:37:10.034Z,44.37
2022-12-01T23:39:39.089Z,45.10
2022-12-01T23:42:08.089Z,44.59
2022-12-01T23:44:35.086Z,44.20
2022-12-01T23:47:02.228Z,43.75
2022-12-01T23:49:29.231Z,44.38
2022-12-01T23:51:56.811Z,44.34
2022-12-01T23:54:23.662Z,45.74
2022-12-01T23:56:52.268Z,50.17
2022-12-01T23:59:19.911Z,49.86
